sensor_id;sensor_type;location;lat;lon;timestamp;temperature;humidity
25410;DHT22;13339;50.840;4.346;2024-03-02T00:00:37;10.00;99.90
25410;DHT22;13339;50.840;4.346;2024-03-02T00:03:04;9.80;99.90
25410;DHT22;13339;50.840;4.346;2024-03-02T00:05:29;9.90;99.90
25410;DHT22;13339;50.840;4.346;2024-03-02T00:07:57;9.90;99.90
25410;DHT22;13339;50.840;4.346;2024-03-02T00:10:25;9.90;99.90
25410;DHT22;13339;50.840;4.346;2024-03-02T00:12:55;9.90;99.90
25410;DHT22;13339;50.840;4.346;2024-03-02T00:15:47;9.90;99.90
25410;DHT22;13339;50.840;4.346;2024-03-02T00:18:16;9.90;99.90
25410;DHT22;13339;50.840;4.346;2024-03-02T00:20:42;9.90;99.90
25410;DHT22;13339;50.840;4.346;2024-03-02T00:23:10;9.70;99.90
25410;DHT22;13339;50.840;4.346;2024-03-02T00:26:05;9.80;99.90
25410;DHT22;13339;50.840;4.346;2024-03-02T00:28:35;9.80;99.90
25410;DHT22;13339;50.840;4.346;2024-03-02T00:31:08;9.80;99.90
25410;DHT22;13339;50.840;4.346;2024-03-02T00:33:36;9.70;99.90
25410;DHT22;13339;50.840;4.346;2024-03-02T00:36:05;9.70;99.90
25410;DHT22;13339;50.840;4.346;2024-03-02T00:38:32;9.60;99.90
25410;DHT22;13339;50.840;4.346;2024-03-02T00:41:05;9.50;99.90
25410;DHT22;13339;50.840;4.346;2024-03-02T00:43:43;9.50;99.90
25410;DHT22;13339;50.840;4.346;2024-03-02T00:46:16;9.60;99.90
25410;DHT22;13339;50.840;4.346;2024-03-02T00:51:19;9.40;99.90
25410;DHT22;13339;50.840;4.346;2024-03-02T00:53:45;9.50;99.90
25410;DHT22;13339;50.840;4.346;2024-03-02T00:56:11;9.60;99.90
25410;DHT22;13339;50.840;4.346;2024-03-02T00:58:38;9.50;99.90
25410;DHT22;13339;50.840;4.346;2024-03-02T01:01:04;9.60;99.90
25410;DHT22;13339;50.840;4.346;2024-03-02T01:03:31;9.60;99.90
25410;DHT22;13339;50.840;4.346;2024-03-02T01:05:57;9.50;99.90
25410;DHT22;13339;50.840;4.346;2024-03-02T01:08:23;9.50;99.90
25410;DHT22;13339;50.840;4.346;2024-03-02T01:10:49;9.60;99.90
25410;DHT22;13339;50.840;4.346;2024-03-02T01:13:14;9.60;99.90
25410;DHT22;13339;50.840;4.346;2024-03-02T01:15:40;9.60;99.90
25410;DHT22;13339;50.840;4.346;2024-03-02T01:18:06;9.40;99.90
25410;DHT22;13339;50.840;4.346;2024-03-02T01:20:31;9.50;99.90
25410;DHT22;13339;50.840;4.346;2024-03-02T01:22:57;9.50;99.90
25410;DHT22;13339;50.840;4.346;2024-03-02T01:25:23;9.60;99.90
25410;DHT22;13339;50.840;4.346;2024-03-02T01:27:48;9.70;99.90
25410;DHT22;13339;50.840;4.346;2024-03-02T01:30:14;9.80;99.90
25410;DHT22;13339;50.840;4.346;2024-03-02T01:32:39;9.70;99.90
25410;DHT22;13339;50.840;4.346;2024-03-02T01:35:06;9.70;99.90
25410;DHT22;13339;50.840;4.346;2024-03-02T01:37:32;9.70;99.90
25410;DHT22;13339;50.840;4.346;2024-03-02T01:39:58;9.60;99.90
25410;DHT22;13339;50.840;4.346;2024-03-02T01:42:24;9.60;99.90
25410;DHT22;13339;50.840;4.346;2024-03-02T01:44:51;9.40;99.90
25410;DHT22;13339;50.840;4.346;2024-03-02T01:47:16;9.50;99.90
25410;DHT22;13339;50.840;4.346;2024-03-02T01:49:42;9.60;99.90
25410;DHT22;13339;50.840;4.346;2024-03-02T01:52:08;9.50;99.90
25410;DHT22;13339;50.840;4.346;2024-03-02T01:54:33;9.60;99.90
25410;DHT22;13339;50.840;4.346;2024-03-02T01:57:00;9.70;99.90
25410;DHT22;13339;50.840;4.346;2024-03-02T01:59:26;9.80;99.90
25410;DHT22;13339;50.840;4.346;2024-03-02T02:01:51;9.80;99.90
25410;DHT22;13339;50.840;4.346;2024-03-02T02:04:17;9.50;99.90
25410;DHT22;13339;50.840;4.346;2024-03-02T02:06:44;9.60;99.90
25410;DHT22;13339;50.840;4.346;2024-03-02T02:09:10;9.60;99.90
25410;DHT22;13339;50.840;4.346;2024-03-02T02:11:35;9.50;99.90
25410;DHT22;13339;50.840;4.346;2024-03-02T02:14:01;9.40;99.90
25410;DHT22;13339;50.840;4.346;2024-03-02T02:16:27;9.60;99.90
25410;DHT22;13339;50.840;4.346;2024-03-02T02:18:52;9.50;99.90
25410;DHT22;13339;50.840;4.346;2024-03-02T02:21:22;9.60;99.90
25410;DHT22;13339;50.840;4.346;2024-03-02T02:23:48;9.70;99.90
25410;DHT22;13339;50.840;4.346;2024-03-02T02:26:14;9.50;99.90
25410;DHT22;13339;50.840;4.346;2024-03-02T02:28:39;9.60;99.90
25410;DHT22;13339;50.840;4.346;2024-03-02T02:31:15;9.70;99.90
25410;DHT22;13339;50.840;4.346;2024-03-02T02:33:41;9.70;99.90
25410;DHT22;13339;50.840;4.346;2024-03-02T02:36:07;9.40;99.90
25410;DHT22;13339;50.840;4.346;2024-03-02T02:38:34;9.30;99.90
25410;DHT22;13339;50.840;4.346;2024-03-02T02:41:02;9.30;99.90
25410;DHT22;13339;50.840;4.346;2024-03-02T02:43:28;9.20;99.90
25410;DHT22;13339;50.840;4.346;2024-03-02T02:45:53;9.20;99.90
25410;DHT22;13339;50.840;4.346;2024-03-02T02:48:19;9.20;99.90
25410;DHT22;13339;50.840;4.346;2024-03-02T02:50:44;9.10;99.90
25410;DHT22;13339;50.840;4.346;2024-03-02T02:53:10;9.10;99.90
25410;DHT22;13339;50.840;4.346;2024-03-02T02:55:36;9.00;99.90
25410;DHT22;13339;50.840;4.346;2024-03-02T02:58:06;9.10;99.90
25410;DHT22;13339;50.840;4.346;2024-03-02T03:00:32;9.10;99.90
25410;DHT22;13339;50.840;4.346;2024-03-02T03:02:58;9.20;99.90
25410;DHT22;13339;50.840;4.346;2024-03-02T03:05:23;9.20;99.90
25410;DHT22;13339;50.840;4.346;2024-03-02T03:07:49;9.10;99.90
25410;DHT22;13339;50.840;4.346;2024-03-02T03:10:15;9.20;99.90
25410;DHT22;13339;50.840;4.346;2024-03-02T03:12:41;9.20;99.90
25410;DHT22;13339;50.840;4.346;2024-03-02T03:15:08;9.20;99.90
25410;DHT22;13339;50.840;4.346;2024-03-02T03:17:35;9.10;99.90
25410;DHT22;13339;50.840;4.346;2024-03-02T03:20:01;9.20;99.90
25410;DHT22;13339;50.840;4.346;2024-03-02T03:22:28;9.20;99.90
25410;DHT22;13339;50.840;4.346;2024-03-02T03:24:53;9.10;99.90
25410;DHT22;13339;50.840;4.346;2024-03-02T03:27:19;9.10;99.90
25410;DHT22;13339;50.840;4.346;2024-03-02T03:29:47;9.20;99.90
25410;DHT22;13339;50.840;4.346;2024-03-02T03:32:13;9.30;99.90
25410;DHT22;13339;50.840;4.346;2024-03-02T03:34:39;9.10;99.90
25410;DHT22;13339;50.840;4.346;2024-03-02T03:37:05;8.90;99.90
25410;DHT22;13339;50.840;4.346;2024-03-02T03:39:31;9.00;99.90
25410;DHT22;13339;50.840;4.346;2024-03-02T03:41:56;9.10;99.90
25410;DHT22;13339;50.840;4.346;2024-03-02T03:44:22;9.10;99.90
25410;DHT22;13339;50.840;4.346;2024-03-02T03:46:48;9.40;99.90
25410;DHT22;13339;50.840;4.346;2024-03-02T03:49:13;9.40;99.90
25410;DHT22;13339;50.840;4.346;2024-03-02T03:51:39;9.40;99.90
25410;DHT22;13339;50.840;4.346;2024-03-02T03:54:04;9.50;99.90
25410;DHT22;13339;50.840;4.346;2024-03-02T03:56:30;9.60;99.90
25410;DHT22;13339;50.840;4.346;2024-03-02T03:58:56;9.70;99.90
25410;DHT22;13339;50.840;4.346;2024-03-02T04:01:21;9.80;99.90
25410;DHT22;13339;50.840;4.346;2024-03-02T04:03:48;9.80;99.90
25410;DHT22;13339;50.840;4.346;2024-03-02T04:06:14;9.80;99.90
25410;DHT22;13339;50.840;4.346;2024-03-02T04:08:41;9.50;99.90
25410;DHT22;13339;50.840;4.346;2024-03-02T04:11:07;9.60;99.90
25410;DHT22;13339;50.840;4.346;2024-03-02T04:13:33;9.60;99.90
25410;DHT22;13339;50.840;4.346;2024-03-02T04:15:59;9.70;99.90
25410;DHT22;13339;50.840;4.346;2024-03-02T04:18:24;9.70;99.90
25410;DHT22;13339;50.840;4.346;2024-03-02T04:20:50;9.80;99.90
25410;DHT22;13339;50.840;4.346;2024-03-02T04:23:15;9.80;99.90
25410;DHT22;13339;50.840;4.346;2024-03-02T04:25:41;9.80;99.90
25410;DHT22;13339;50.840;4.346;2024-03-02T04:28:06;9.80;99.90
25410;DHT22;13339;50.840;4.346;2024-03-02T04:30:32;9.60;99.90
25410;DHT22;13339;50.840;4.346;2024-03-02T04:32:58;9.70;99.90
25410;DHT22;13339;50.840;4.346;2024-03-02T04:35:23;9.70;99.90
25410;DHT22;13339;50.840;4.346;2024-03-02T04:37:50;9.70;99.90
25410;DHT22;13339;50.840;4.346;2024-03-02T04:40:16;9.70;99.90
25410;DHT22;13339;50.840;4.346;2024-03-02T04:42:41;9.70;99.90
25410;DHT22;13339;50.840;4.346;2024-03-02T04:45:07;9.80;99.90
25410;DHT22;13339;50.840;4.346;2024-03-02T04:47:33;9.70;99.90
25410;DHT22;13339;50.840;4.346;2024-03-02T04:49:58;9.70;99.90
25410;DHT22;13339;50.840;4.346;2024-03-02T04:52:24;9.80;99.90
25410;DHT22;13339;50.840;4.346;2024-03-02T04:54:50;9.70;99.90
25410;DHT22;13339;50.840;4.346;2024-03-02T04:57:54;9.60;99.90
25410;DHT22;13339;50.840;4.346;2024-03-02T05:00:22;9.50;99.90
25410;DHT22;13339;50.840;4.346;2024-03-02T05:02:48;9.40;99.90
25410;DHT22;13339;50.840;4.346;2024-03-02T05:05:14;9.40;99.90
25410;DHT22;13339;50.840;4.346;2024-03-02T05:07:43;9.50;99.90
25410;DHT22;13339;50.840;4.346;2024-03-02T05:10:09;9.40;99.90
25410;DHT22;13339;50.840;4.346;2024-03-02T05:12:35;9.40;99.90
25410;DHT22;13339;50.840;4.346;2024-03-02T05:15:30;9.30;99.90
25410;DHT22;13339;50.840;4.346;2024-03-02T05:17:55;9.20;99.90
25410;DHT22;13339;50.840;4.346;2024-03-02T05:20:22;9.20;99.90
25410;DHT22;13339;50.840;4.346;2024-03-02T05:22:48;9.00;99.90
25410;DHT22;13339;50.840;4.346;2024-03-02T05:25:15;9.00;99.90
25410;DHT22;13339;50.840;4.346;2024-03-02T05:27:40;9.20;99.90
25410;DHT22;13339;50.840;4.346;2024-03-02T05:30:07;9.10;99.90
25410;DHT22;13339;50.840;4.346;2024-03-02T05:32:33;8.90;99.90
25410;DHT22;13339;50.840;4.346;2024-03-02T05:34:59;8.90;99.90
25410;DHT22;13339;50.840;4.346;2024-03-02T05:37:24;8.90;99.90
25410;DHT22;13339;50.840;4.346;2024-03-02T05:39:50;8.80;99.90
25410;DHT22;13339;50.840;4.346;2024-03-02T05:42:15;8.80;99.90
25410;DHT22;13339;50.840;4.346;2024-03-02T05:44:42;8.70;99.90
25410;DHT22;13339;50.840;4.346;2024-03-02T05:47:07;8.80;99.90
25410;DHT22;13339;50.840;4.346;2024-03-02T05:49:34;8.70;99.90
25410;DHT22;13339;50.840;4.346;2024-03-02T05:52:00;8.70;99.90
25410;DHT22;13339;50.840;4.346;2024-03-02T05:54:25;8.70;99.90
25410;DHT22;13339;50.840;4.346;2024-03-02T05:56:51;8.80;99.90
25410;DHT22;13339;50.840;4.346;2024-03-02T05:59:17;8.80;99.90
25410;DHT22;13339;50.840;4.346;2024-03-02T06:01:43;8.80;99.90
25410;DHT22;13339;50.840;4.346;2024-03-02T06:04:12;8.80;99.90
25410;DHT22;13339;50.840;4.346;2024-03-02T06:06:39;8.70;99.90
25410;DHT22;13339;50.840;4.346;2024-03-02T06:09:05;8.70;99.90
25410;DHT22;13339;50.840;4.346;2024-03-02T06:11:36;8.80;99.90
25410;DHT22;13339;50.840;4.346;2024-03-02T06:14:05;8.80;99.90
25410;DHT22;13339;50.840;4.346;2024-03-02T06:16:32;8.70;99.90
25410;DHT22;13339;50.840;4.346;2024-03-02T06:18:58;8.80;99.90
25410;DHT22;13339;50.840;4.346;2024-03-02T06:21:24;8.80;99.90
25410;DHT22;13339;50.840;4.346;2024-03-02T06:23:49;8.60;99.90
25410;DHT22;13339;50.840;4.346;2024-03-02T06:26:15;8.70;99.90
25410;DHT22;13339;50.840;4.346;2024-03-02T06:28:41;8.80;99.90
25410;DHT22;13339;50.840;4.346;2024-03-02T06:31:07;8.70;99.90
25410;DHT22;13339;50.840;4.346;2024-03-02T06:33:32;8.70;99.90
25410;DHT22;13339;50.840;4.346;2024-03-02T06:35:58;8.70;99.90
25410;DHT22;13339;50.840;4.346;2024-03-02T06:38:23;8.70;99.90
25410;DHT22;13339;50.840;4.346;2024-03-02T06:40:49;8.60;99.90
25410;DHT22;13339;50.840;4.346;2024-03-02T06:43:15;8.60;99.90
25410;DHT22;13339;50.840;4.346;2024-03-02T06:45:41;8.60;99.90
25410;DHT22;13339;50.840;4.346;2024-03-02T06:48:06;8.70;99.90
25410;DHT22;13339;50.840;4.346;2024-03-02T06:50:32;8.80;99.90
25410;DHT22;13339;50.840;4.346;2024-03-02T06:52:58;8.80;99.90
25410;DHT22;13339;50.840;4.346;2024-03-02T06:55:23;8.60;99.90
25410;DHT22;13339;50.840;4.346;2024-03-02T06:57:50;8.40;99.90
25410;DHT22;13339;50.840;4.346;2024-03-02T07:00:16;8.30;99.90
25410;DHT22;13339;50.840;4.346;2024-03-02T07:02:43;8.40;99.90
25410;DHT22;13339;50.840;4.346;2024-03-02T07:05:10;8.30;99.90
25410;DHT22;13339;50.840;4.346;2024-03-02T07:07:36;8.30;99.90
25410;DHT22;13339;50.840;4.346;2024-03-02T07:10:06;8.10;99.90
25410;DHT22;13339;50.840;4.346;2024-03-02T07:12:33;8.10;99.90
25410;DHT22;13339;50.840;4.346;2024-03-02T07:14:58;8.20;99.90
25410;DHT22;13339;50.840;4.346;2024-03-02T07:17:30;8.20;99.90
25410;DHT22;13339;50.840;4.346;2024-03-02T07:19:56;8.30;99.90
25410;DHT22;13339;50.840;4.346;2024-03-02T07:22:22;8.30;99.90
25410;DHT22;13339;50.840;4.346;2024-03-02T07:24:48;8.20;99.90
25410;DHT22;13339;50.840;4.346;2024-03-02T07:27:15;8.10;99.90
25410;DHT22;13339;50.840;4.346;2024-03-02T07:29:41;8.20;99.90
25410;DHT22;13339;50.840;4.346;2024-03-02T07:32:08;8.10;99.90
25410;DHT22;13339;50.840;4.346;2024-03-02T07:34:34;8.20;99.90
25410;DHT22;13339;50.840;4.346;2024-03-02T07:36:59;8.10;99.90
25410;DHT22;13339;50.840;4.346;2024-03-02T07:39:25;8.00;99.90
25410;DHT22;13339;50.840;4.346;2024-03-02T07:41:51;8.10;99.90
25410;DHT22;13339;50.840;4.346;2024-03-02T07:44:17;8.10;99.90
25410;DHT22;13339;50.840;4.346;2024-03-02T07:46:45;8.10;99.90
25410;DHT22;13339;50.840;4.346;2024-03-02T07:49:16;8.10;99.90
25410;DHT22;13339;50.840;4.346;2024-03-02T07:51:42;8.40;99.90
25410;DHT22;13339;50.840;4.346;2024-03-02T07:54:07;8.70;99.90
25410;DHT22;13339;50.840;4.346;2024-03-02T07:56:33;8.90;99.90
25410;DHT22;13339;50.840;4.346;2024-03-02T07:59:01;8.90;99.90
25410;DHT22;13339;50.840;4.346;2024-03-02T08:01:28;8.90;99.90
25410;DHT22;13339;50.840;4.346;2024-03-02T08:03:58;9.10;99.90
25410;DHT22;13339;50.840;4.346;2024-03-02T08:06:27;9.50;99.90
25410;DHT22;13339;50.840;4.346;2024-03-02T08:08:54;10.10;99.90
25410;DHT22;13339;50.840;4.346;2024-03-02T08:11:20;10.40;99.90
25410;DHT22;13339;50.840;4.346;2024-03-02T08:13:46;10.70;99.90
25410;DHT22;13339;50.840;4.346;2024-03-02T08:16:12;10.60;99.90
25410;DHT22;13339;50.840;4.346;2024-03-02T08:18:38;10.60;99.90
25410;DHT22;13339;50.840;4.346;2024-03-02T08:21:04;10.40;99.90
25410;DHT22;13339;50.840;4.346;2024-03-02T08:23:30;10.30;99.90
25410;DHT22;13339;50.840;4.346;2024-03-02T08:25:56;10.00;99.90
25410;DHT22;13339;50.840;4.346;2024-03-02T08:28:22;10.00;99.90
25410;DHT22;13339;50.840;4.346;2024-03-02T08:30:48;10.00;99.90
25410;DHT22;13339;50.840;4.346;2024-03-02T08:33:14;10.10;99.90
25410;DHT22;13339;50.840;4.346;2024-03-02T08:35:39;9.80;99.90
25410;DHT22;13339;50.840;4.346;2024-03-02T08:38:05;9.80;99.90
25410;DHT22;13339;50.840;4.346;2024-03-02T08:40:31;9.80;99.90
25410;DHT22;13339;50.840;4.346;2024-03-02T08:42:56;9.70;99.90
25410;DHT22;13339;50.840;4.346;2024-03-02T08:45:22;9.90;99.90
25410;DHT22;13339;50.840;4.346;2024-03-02T08:47:48;9.80;99.90
25410;DHT22;13339;50.840;4.346;2024-03-02T08:50:14;9.90;99.90
25410;DHT22;13339;50.840;4.346;2024-03-02T08:52:39;9.80;99.90
25410;DHT22;13339;50.840;4.346;2024-03-02T08:55:06;9.70;99.90
25410;DHT22;13339;50.840;4.346;2024-03-02T08:57:32;9.80;99.90
25410;DHT22;13339;50.840;4.346;2024-03-02T08:59:59;9.70;99.90
25410;DHT22;13339;50.840;4.346;2024-03-02T09:02:25;9.70;99.90
25410;DHT22;13339;50.840;4.346;2024-03-02T09:04:50;9.80;99.90
25410;DHT22;13339;50.840;4.346;2024-03-02T09:07:16;10.00;99.90
25410;DHT22;13339;50.840;4.346;2024-03-02T09:09:42;10.00;99.90
25410;DHT22;13339;50.840;4.346;2024-03-02T09:12:07;10.10;99.90
25410;DHT22;13339;50.840;4.346;2024-03-02T09:14:33;10.20;99.90
25410;DHT22;13339;50.840;4.346;2024-03-02T09:17:00;10.30;99.90
25410;DHT22;13339;50.840;4.346;2024-03-02T09:19:25;10.40;99.90
25410;DHT22;13339;50.840;4.346;2024-03-02T09:21:51;10.40;99.90
25410;DHT22;13339;50.840;4.346;2024-03-02T09:24:16;10.50;99.90
25410;DHT22;13339;50.840;4.346;2024-03-02T09:26:42;10.60;99.90
25410;DHT22;13339;50.840;4.346;2024-03-02T09:29:08;10.70;99.90
25410;DHT22;13339;50.840;4.346;2024-03-02T09:31:42;10.70;99.90
25410;DHT22;13339;50.840;4.346;2024-03-02T09:34:08;10.60;99.90
25410;DHT22;13339;50.840;4.346;2024-03-02T09:36:34;10.60;99.90
25410;DHT22;13339;50.840;4.346;2024-03-02T09:38:59;10.70;99.90
25410;DHT22;13339;50.840;4.346;2024-03-02T09:41:25;10.90;99.90
25410;DHT22;13339;50.840;4.346;2024-03-02T09:43:51;10.90;99.90
25410;DHT22;13339;50.840;4.346;2024-03-02T09:46:17;11.00;99.90
25410;DHT22;13339;50.840;4.346;2024-03-02T09:48:44;11.00;99.90
25410;DHT22;13339;50.840;4.346;2024-03-02T09:51:11;11.20;99.90
25410;DHT22;13339;50.840;4.346;2024-03-02T09:53:37;11.10;99.90
25410;DHT22;13339;50.840;4.346;2024-03-02T09:56:03;11.00;99.90
25410;DHT22;13339;50.840;4.346;2024-03-02T09:58:30;10.90;99.90
25410;DHT22;13339;50.840;4.346;2024-03-02T10:00:55;10.90;99.90
25410;DHT22;13339;50.840;4.346;2024-03-02T10:03:22;11.10;99.90
25410;DHT22;13339;50.840;4.346;2024-03-02T10:05:49;11.20;99.90
25410;DHT22;13339;50.840;4.346;2024-03-02T10:08:15;11.40;99.90
25410;DHT22;13339;50.840;4.346;2024-03-02T10:10:41;11.40;99.90
25410;DHT22;13339;50.840;4.346;2024-03-02T10:13:13;11.50;99.90
25410;DHT22;13339;50.840;4.346;2024-03-02T10:15:40;11.40;99.90
25410;DHT22;13339;50.840;4.346;2024-03-02T10:18:09;11.40;99.90
25410;DHT22;13339;50.840;4.346;2024-03-02T10:20:36;11.50;99.90
25410;DHT22;13339;50.840;4.346;2024-03-02T10:23:15;11.50;99.90
25410;DHT22;13339;50.840;4.346;2024-03-02T10:25:42;11.70;99.90
25410;DHT22;13339;50.840;4.346;2024-03-02T10:28:08;12.00;99.90
25410;DHT22;13339;50.840;4.346;2024-03-02T10:30:34;12.20;99.90
25410;DHT22;13339;50.840;4.346;2024-03-02T10:33:01;12.50;99.90
25410;DHT22;13339;50.840;4.346;2024-03-02T10:35:27;12.70;99.90
25410;DHT22;13339;50.840;4.346;2024-03-02T10:37:53;12.80;99.90
25410;DHT22;13339;50.840;4.346;2024-03-02T10:40:21;12.90;99.90
25410;DHT22;13339;50.840;4.346;2024-03-02T10:42:48;12.80;99.90
25410;DHT22;13339;50.840;4.346;2024-03-02T10:45:15;12.80;99.90
25410;DHT22;13339;50.840;4.346;2024-03-02T10:47:43;13.10;99.90
25410;DHT22;13339;50.840;4.346;2024-03-02T10:50:09;13.30;99.90
25410;DHT22;13339;50.840;4.346;2024-03-02T10:52:36;13.50;99.90
25410;DHT22;13339;50.840;4.346;2024-03-02T10:55:02;13.70;99.90
25410;DHT22;13339;50.840;4.346;2024-03-02T10:57:49;13.70;99.90
25410;DHT22;13339;50.840;4.346;2024-03-02T11:00:15;13.50;99.90
25410;DHT22;13339;50.840;4.346;2024-03-02T11:02:51;13.60;99.90
25410;DHT22;13339;50.840;4.346;2024-03-02T11:05:27;13.50;99.90
25410;DHT22;13339;50.840;4.346;2024-03-02T11:08:18;13.50;99.90
25410;DHT22;13339;50.840;4.346;2024-03-02T11:10:50;13.70;99.90
25410;DHT22;13339;50.840;4.346;2024-03-02T11:13:24;13.60;99.90
25410;DHT22;13339;50.840;4.346;2024-03-02T11:15:55;13.70;99.90
25410;DHT22;13339;50.840;4.346;2024-03-02T11:18:21;13.70;99.90
25410;DHT22;13339;50.840;4.346;2024-03-02T11:20:47;13.70;99.90
25410;DHT22;13339;50.840;4.346;2024-03-02T11:23:13;13.50;99.90
25410;DHT22;13339;50.840;4.346;2024-03-02T11:25:40;13.40;99.90
25410;DHT22;13339;50.840;4.346;2024-03-02T11:28:07;13.50;99.90
25410;DHT22;13339;50.840;4.346;2024-03-02T11:33:07;13.60;99.90
25410;DHT22;13339;50.840;4.346;2024-03-02T11:35:36;13.60;99.90
25410;DHT22;13339;50.840;4.346;2024-03-02T11:38:06;13.60;99.90
25410;DHT22;13339;50.840;4.346;2024-03-02T11:40:32;13.50;99.90
25410;DHT22;13339;50.840;4.346;2024-03-02T11:42:59;13.60;99.90
25410;DHT22;13339;50.840;4.346;2024-03-02T11:45:28;13.80;99.90
25410;DHT22;13339;50.840;4.346;2024-03-02T11:47:58;13.90;99.90
25410;DHT22;13339;50.840;4.346;2024-03-02T11:50:35;14.10;99.90
25410;DHT22;13339;50.840;4.346;2024-03-02T11:53:03;14.50;99.90
25410;DHT22;13339;50.840;4.346;2024-03-02T11:55:34;14.80;99.90
25410;DHT22;13339;50.840;4.346;2024-03-02T11:58:03;15.00;99.90
25410;DHT22;13339;50.840;4.346;2024-03-02T12:00:29;15.20;99.90
25410;DHT22;13339;50.840;4.346;2024-03-02T12:03:05;15.30;99.90
25410;DHT22;13339;50.840;4.346;2024-03-02T12:05:31;15.20;99.90
25410;DHT22;13339;50.840;4.346;2024-03-02T12:07:58;15.20;99.90
25410;DHT22;13339;50.840;4.346;2024-03-02T12:10:26;14.90;99.90
25410;DHT22;13339;50.840;4.346;2024-03-02T12:13:02;14.70;99.90
25410;DHT22;13339;50.840;4.346;2024-03-02T12:15:30;14.40;99.90
25410;DHT22;13339;50.840;4.346;2024-03-02T12:17:59;14.30;99.90
25410;DHT22;13339;50.840;4.346;2024-03-02T12:20:27;14.30;99.90
25410;DHT22;13339;50.840;4.346;2024-03-02T12:22:57;14.40;99.90
25410;DHT22;13339;50.840;4.346;2024-03-02T12:25:24;14.60;99.90
25410;DHT22;13339;50.840;4.346;2024-03-02T12:27:55;14.60;99.90
25410;DHT22;13339;50.840;4.346;2024-03-02T12:30:21;14.70;99.90
25410;DHT22;13339;50.840;4.346;2024-03-02T12:32:47;14.80;99.90
25410;DHT22;13339;50.840;4.346;2024-03-02T12:35:14;14.90;99.90
25410;DHT22;13339;50.840;4.346;2024-03-02T12:37:43;15.00;99.90
25410;DHT22;13339;50.840;4.346;2024-03-02T12:40:10;15.00;99.90
25410;DHT22;13339;50.840;4.346;2024-03-02T12:42:37;15.10;99.90
25410;DHT22;13339;50.840;4.346;2024-03-02T12:45:03;15.00;99.90
25410;DHT22;13339;50.840;4.346;2024-03-02T12:47:29;14.60;99.90
25410;DHT22;13339;50.840;4.346;2024-03-02T12:49:55;14.40;99.90
25410;DHT22;13339;50.840;4.346;2024-03-02T12:52:21;14.30;99.90
25410;DHT22;13339;50.840;4.346;2024-03-02T12:54:47;14.40;99.90
25410;DHT22;13339;50.840;4.346;2024-03-02T12:57:19;14.50;99.90
25410;DHT22;13339;50.840;4.346;2024-03-02T12:59:45;14.60;99.90
25410;DHT22;13339;50.840;4.346;2024-03-02T13:02:17;14.60;99.90
25410;DHT22;13339;50.840;4.346;2024-03-02T13:04:43;14.60;99.90
25410;DHT22;13339;50.840;4.346;2024-03-02T13:07:08;14.50;99.90
25410;DHT22;13339;50.840;4.346;2024-03-02T13:09:35;14.70;99.90
25410;DHT22;13339;50.840;4.346;2024-03-02T13:12:01;14.90;99.90
25410;DHT22;13339;50.840;4.346;2024-03-02T13:14:28;15.00;99.90
25410;DHT22;13339;50.840;4.346;2024-03-02T13:16:54;14.70;99.90
25410;DHT22;13339;50.840;4.346;2024-03-02T13:19:19;14.50;99.90
25410;DHT22;13339;50.840;4.346;2024-03-02T13:21:45;14.60;99.90
25410;DHT22;13339;50.840;4.346;2024-03-02T13:24:12;14.60;99.90
25410;DHT22;13339;50.840;4.346;2024-03-02T13:26:37;14.60;99.90
25410;DHT22;13339;50.840;4.346;2024-03-02T13:29:03;14.70;99.90
25410;DHT22;13339;50.840;4.346;2024-03-02T13:31:28;14.80;99.90
25410;DHT22;13339;50.840;4.346;2024-03-02T13:33:54;14.90;99.90
25410;DHT22;13339;50.840;4.346;2024-03-02T13:36:19;14.90;99.90
25410;DHT22;13339;50.840;4.346;2024-03-02T13:38:45;14.80;99.90
25410;DHT22;13339;50.840;4.346;2024-03-02T13:41:11;15.00;99.90
25410;DHT22;13339;50.840;4.346;2024-03-02T13:43:37;15.20;99.90
25410;DHT22;13339;50.840;4.346;2024-03-02T13:46:04;15.00;99.90
25410;DHT22;13339;50.840;4.346;2024-03-02T13:48:29;15.10;99.90
25410;DHT22;13339;50.840;4.346;2024-03-02T13:50:56;15.10;99.90
25410;DHT22;13339;50.840;4.346;2024-03-02T13:53:21;15.00;99.90
25410;DHT22;13339;50.840;4.346;2024-03-02T13:55:47;15.00;99.90
25410;DHT22;13339;50.840;4.346;2024-03-02T13:58:13;15.10;99.90
25410;DHT22;13339;50.840;4.346;2024-03-02T14:00:39;15.20;99.90
25410;DHT22;13339;50.840;4.346;2024-03-02T14:03:06;15.20;99.90
25410;DHT22;13339;50.840;4.346;2024-03-02T14:05:32;15.10;99.90
25410;DHT22;13339;50.840;4.346;2024-03-02T14:07:58;15.10;99.90
25410;DHT22;13339;50.840;4.346;2024-03-02T14:10:27;15.10;99.90
25410;DHT22;13339;50.840;4.346;2024-03-02T14:12:53;15.20;99.90
25410;DHT22;13339;50.840;4.346;2024-03-02T14:15:20;15.00;99.90
25410;DHT22;13339;50.840;4.346;2024-03-02T14:17:46;14.90;99.90
25410;DHT22;13339;50.840;4.346;2024-03-02T14:20:12;14.70;99.90
25410;DHT22;13339;50.840;4.346;2024-03-02T14:22:39;14.60;99.90
25410;DHT22;13339;50.840;4.346;2024-03-02T14:25:05;14.50;99.90
25410;DHT22;13339;50.840;4.346;2024-03-02T14:27:31;14.50;99.90
25410;DHT22;13339;50.840;4.346;2024-03-02T14:29:57;14.30;99.90
25410;DHT22;13339;50.840;4.346;2024-03-02T14:32:23;14.20;99.90
25410;DHT22;13339;50.840;4.346;2024-03-02T14:34:48;14.20;99.90
25410;DHT22;13339;50.840;4.346;2024-03-02T14:37:15;14.10;99.90
25410;DHT22;13339;50.840;4.346;2024-03-02T14:39:40;14.10;99.90
25410;DHT22;13339;50.840;4.346;2024-03-02T14:42:06;14.00;99.90
25410;DHT22;13339;50.840;4.346;2024-03-02T14:44:33;14.00;99.90
25410;DHT22;13339;50.840;4.346;2024-03-02T14:47:01;14.10;99.90
25410;DHT22;13339;50.840;4.346;2024-03-02T14:49:27;14.10;99.90
25410;DHT22;13339;50.840;4.346;2024-03-02T14:51:53;14.10;99.90
25410;DHT22;13339;50.840;4.346;2024-03-02T14:54:18;14.10;99.90
25410;DHT22;13339;50.840;4.346;2024-03-02T14:56:44;13.90;99.90
25410;DHT22;13339;50.840;4.346;2024-03-02T14:59:09;14.10;99.90
25410;DHT22;13339;50.840;4.346;2024-03-02T15:01:36;14.10;99.90
25410;DHT22;13339;50.840;4.346;2024-03-02T15:04:01;14.20;99.90
25410;DHT22;13339;50.840;4.346;2024-03-02T15:06:27;14.20;99.90
25410;DHT22;13339;50.840;4.346;2024-03-02T15:08:53;14.30;99.90
25410;DHT22;13339;50.840;4.346;2024-03-02T15:11:20;14.30;99.90
25410;DHT22;13339;50.840;4.346;2024-03-02T15:13:47;14.30;99.90
25410;DHT22;13339;50.840;4.346;2024-03-02T15:16:13;14.30;99.90
25410;DHT22;13339;50.840;4.346;2024-03-02T15:18:38;14.30;99.90
25410;DHT22;13339;50.840;4.346;2024-03-02T15:21:04;14.10;99.90
25410;DHT22;13339;50.840;4.346;2024-03-02T15:23:30;14.20;99.90
25410;DHT22;13339;50.840;4.346;2024-03-02T15:25:56;14.00;99.90
25410;DHT22;13339;50.840;4.346;2024-03-02T15:28:21;13.90;99.90
25410;DHT22;13339;50.840;4.346;2024-03-02T15:30:47;13.80;99.90
25410;DHT22;13339;50.840;4.346;2024-03-02T15:33:12;13.90;99.90
25410;DHT22;13339;50.840;4.346;2024-03-02T15:35:38;13.90;99.90
25410;DHT22;13339;50.840;4.346;2024-03-02T15:38:04;14.00;99.90
25410;DHT22;13339;50.840;4.346;2024-03-02T15:40:29;14.10;99.90
25410;DHT22;13339;50.840;4.346;2024-03-02T15:42:55;14.20;99.90